LAN056 SLVR-SCDA
Flight info
| Callsign | LAN056 |
|---|---|
| Flight time | N/A |
| Altitude | FL320 |
| Route | EKIKO1 EKIKO UL797 AKNUV AKNUV1 |
| Aircraft | A319/M-S/N |
Departure
| Time | 2026-04-30 21:47 |
|---|---|
| Airport | Viru Viru International Airport (SLVR) |
Arrival
| Time | N/A |
|---|---|
| Airport | Diego Aracena International Airport (SCDA) |
| Time | Latitude | Longitude | Altitude | Speed | Heading |
|---|---|---|---|---|---|
| 2026-04-30 21:36 | -17.64762 | -63.13973 | 1235 ft | 0 kts | 234° |
| 2026-04-30 21:37 | -17.64761 | -63.13972 | 1235 ft | 1 kts | 234° |
| 2026-04-30 21:38 | -17.64753 | -63.13959 | 1235 ft | 3 kts | 234° |
| 2026-04-30 21:38 | -17.64741 | -63.13943 | 1235 ft | 3 kts | 234° |
| 2026-04-30 21:38 | -17.64730 | -63.13925 | 1235 ft | 3 kts | 234° |
| 2026-04-30 21:38 | -17.64724 | -63.13917 | 1235 ft | 0 kts | 234° |
| 2026-04-30 21:40 | -17.64733 | -63.13920 | 1235 ft | 3 kts | 168° |
| 2026-04-30 21:41 | -17.64760 | -63.13886 | 1235 ft | 11 kts | 131° |
| 2026-04-30 21:41 | -17.64835 | -63.13825 | 1235 ft | 16 kts | 146° |
| 2026-04-30 21:41 | -17.64881 | -63.13751 | 1235 ft | 11 kts | 70° |
| 2026-04-30 21:41 | -17.64831 | -63.13664 | 1235 ft | 17 kts | 56° |
| 2026-04-30 21:42 | -17.64787 | -63.13576 | 1235 ft | 12 kts | 109° |
| 2026-04-30 21:42 | -17.64844 | -63.13529 | 1235 ft | 13 kts | 147° |
| 2026-04-30 21:42 | -17.64942 | -63.13463 | 1235 ft | 21 kts | 147° |
| 2026-04-30 21:42 | -17.65064 | -63.13381 | 1235 ft | 23 kts | 147° |
| 2026-04-30 21:43 | -17.65196 | -63.13291 | 1235 ft | 21 kts | 147° |
| 2026-04-30 21:43 | -17.65273 | -63.13238 | 1235 ft | 13 kts | 147° |
| 2026-04-30 21:43 | -17.65358 | -63.13180 | 1235 ft | 18 kts | 147° |
| 2026-04-30 21:43 | -17.65460 | -63.13112 | 1235 ft | 18 kts | 152° |
| 2026-04-30 21:44 | -17.65610 | -63.13016 | 1235 ft | 16 kts | 147° |
| 2026-04-30 21:44 | -17.65662 | -63.12980 | 1235 ft | 13 kts | 147° |
| 2026-04-30 21:44 | -17.65755 | -63.12918 | 1235 ft | 16 kts | 147° |
| 2026-04-30 21:44 | -17.65851 | -63.12848 | 1235 ft | 17 kts | 138° |
| 2026-04-30 21:45 | -17.65867 | -63.12762 | 1235 ft | 6 kts | 55° |
| 2026-04-30 21:45 | -17.65856 | -63.12744 | 1235 ft | 2 kts | 56° |
| 2026-04-30 21:45 | -17.65853 | -63.12741 | 1235 ft | 0 kts | 56° |
| 2026-04-30 21:45 | -17.65853 | -63.12740 | 1235 ft | 2 kts | 56° |
| 2026-04-30 21:46 | -17.65831 | -63.12706 | 1235 ft | 9 kts | 57° |
| 2026-04-30 21:46 | -17.65781 | -63.12666 | 1235 ft | 10 kts | 349° |
| 2026-04-30 21:46 | -17.65715 | -63.12706 | 1235 ft | 25 kts | 327° |
| 2026-04-30 21:46 | -17.65364 | -63.12941 | 1235 ft | 96 kts | 327° |
| 2026-04-30 21:47 | -17.64619 | -63.13442 | 1248 ft | 155 kts | 327° |
| 2026-04-30 21:47 | -17.63625 | -63.14101 | 1697 ft | 182 kts | 328° |
| 2026-04-30 21:47 | -17.62443 | -63.14856 | 2119 ft | 215 kts | 328° |
| 2026-04-30 21:47 | -17.61146 | -63.15735 | 2564 ft | 231 kts | 327° |
| 2026-04-30 21:48 | -17.59772 | -63.16683 | 3006 ft | 242 kts | 321° |
| 2026-04-30 21:48 | -17.58888 | -63.17962 | 3394 ft | 247 kts | 294° |
| 2026-04-30 21:48 | -17.58669 | -63.19753 | 3851 ft | 255 kts | 265° |
| 2026-04-30 21:48 | -17.59305 | -63.21490 | 4326 ft | 259 kts | 240° |
| 2026-04-30 21:49 | -17.60368 | -63.23023 | 4792 ft | 261 kts | 232° |
| 2026-04-30 21:49 | -17.61536 | -63.24480 | 5243 ft | 261 kts | 231° |
| 2026-04-30 21:49 | -17.62716 | -63.25916 | 5694 ft | 260 kts | 231° |
| 2026-04-30 21:49 | -17.63877 | -63.27365 | 6147 ft | 259 kts | 233° |
| 2026-04-30 21:50 | -17.64947 | -63.28872 | 6601 ft | 256 kts | 237° |
| 2026-04-30 21:50 | -17.65890 | -63.30439 | 7051 ft | 253 kts | 242° |
| 2026-04-30 21:50 | -17.66712 | -63.32046 | 7498 ft | 250 kts | 245° |
| 2026-04-30 21:50 | -17.67446 | -63.33701 | 7950 ft | 249 kts | 248° |
| 2026-04-30 21:51 | -17.68105 | -63.35378 | 8400 ft | 249 kts | 250° |
| 2026-04-30 21:51 | -17.68714 | -63.37085 | 8851 ft | 250 kts | 251° |
| 2026-04-30 21:51 | -17.69288 | -63.38812 | 9302 ft | 252 kts | 252° |
| 2026-04-30 21:51 | -17.69838 | -63.40556 | 9753 ft | 253 kts | 253° |
| 2026-04-30 21:52 | -17.70373 | -63.42319 | 10204 ft | 255 kts | 254° |
| 2026-04-30 21:52 | -17.70900 | -63.44097 | 10656 ft | 256 kts | 254° |
| 2026-04-30 21:52 | -17.71422 | -63.45887 | 11107 ft | 258 kts | 254° |
| 2026-04-30 21:52 | -17.71942 | -63.47692 | 11558 ft | 259 kts | 255° |
| 2026-04-30 21:53 | -17.72462 | -63.49510 | 12011 ft | 265 kts | 255° |
| 2026-04-30 21:53 | -17.73012 | -63.51450 | 12475 ft | 289 kts | 255° |
| 2026-04-30 21:53 | -17.73595 | -63.53511 | 12932 ft | 301 kts | 255° |
| 2026-04-30 21:53 | -17.74198 | -63.55645 | 13388 ft | 308 kts | 255° |
| 2026-04-30 21:54 | -17.74810 | -63.57811 | 13840 ft | 313 kts | 255° |
| 2026-04-30 21:54 | -17.75434 | -63.60017 | 14293 ft | 317 kts | 255° |
| 2026-04-30 21:54 | -17.76062 | -63.62242 | 14744 ft | 320 kts | 255° |
| 2026-04-30 21:54 | -17.76697 | -63.64493 | 15195 ft | 323 kts | 255° |
| 2026-04-30 21:55 | -17.77336 | -63.66758 | 15646 ft | 326 kts | 255° |
| 2026-04-30 21:55 | -17.77796 | -63.68263 | 15942 ft | 328 kts | 251° |
| 2026-04-30 21:55 | -17.78651 | -63.70479 | 32144 ft | 478 kts | 245° |
| 2026-04-30 21:55 | -17.80331 | -63.73430 | 32027 ft | 464 kts | 236° |
| 2026-04-30 21:56 | -17.84478 | -63.78480 | 31987 ft | 455 kts | 227° |
| 2026-04-30 21:56 | -17.88641 | -63.82664 | 31995 ft | 449 kts | 225° |
| 2026-04-30 21:57 | -17.89514 | -63.83505 | 31967 ft | 449 kts | 224° |
| 2026-04-30 21:57 | -17.92571 | -63.86408 | 31916 ft | 448 kts | 223° |
| 2026-04-30 21:58 | -17.97186 | -63.90773 | 31913 ft | 447 kts | 224° |
| 2026-04-30 21:58 | -18.01799 | -63.95186 | 31913 ft | 449 kts | 224° |
| 2026-04-30 21:59 | -18.06385 | -63.99637 | 31913 ft | 450 kts | 225° |
| 2026-04-30 22:00 | -18.13243 | -64.06391 | 31913 ft | 451 kts | 225° |
| 2026-04-30 22:00 | -18.20101 | -64.13220 | 31914 ft | 454 kts | 225° |
| 2026-04-30 22:01 | -18.24663 | -64.17787 | 31913 ft | 453 kts | 225° |
| 2026-04-30 22:01 | -18.29217 | -64.22357 | 31913 ft | 453 kts | 225° |
| 2026-04-30 22:02 | -18.33773 | -64.26937 | 31913 ft | 453 kts | 226° |
| 2026-04-30 22:02 | -18.38064 | -64.31770 | 31914 ft | 452 kts | 232° |
| 2026-04-30 22:03 | -18.41851 | -64.37034 | 31914 ft | 451 kts | 236° |
| 2026-04-30 22:03 | -18.45407 | -64.42459 | 31913 ft | 450 kts | 237° |
| 2026-04-30 22:04 | -18.48881 | -64.47938 | 31913 ft | 450 kts | 237° |
| 2026-04-30 22:05 | -18.54066 | -64.56151 | 31913 ft | 449 kts | 237° |
| 2026-04-30 22:05 | -18.57549 | -64.61622 | 31913 ft | 449 kts | 237° |
| 2026-04-30 22:06 | -18.61052 | -64.67057 | 31913 ft | 448 kts | 237° |
| 2026-04-30 22:06 | -18.66323 | -64.75194 | 31913 ft | 448 kts | 236° |
| 2026-04-30 22:07 | -18.69838 | -64.80624 | 31913 ft | 448 kts | 236° |
| 2026-04-30 22:07 | -18.73340 | -64.86042 | 31925 ft | 447 kts | 236° |
| 2026-04-30 22:08 | -18.76837 | -64.91452 | 31931 ft | 446 kts | 237° |
| 2026-04-30 22:08 | -18.80327 | -64.96857 | 31926 ft | 446 kts | 236° |
| 2026-04-30 22:09 | -18.83804 | -65.02250 | 31961 ft | 444 kts | 237° |
| 2026-04-30 22:09 | -18.87260 | -65.07615 | 31988 ft | 441 kts | 237° |
| 2026-04-30 22:10 | -18.90704 | -65.12943 | 31995 ft | 438 kts | 237° |
| 2026-04-30 22:10 | -18.92342 | -65.15473 | 31996 ft | 437 kts | 237° |
| 2026-04-30 22:11 | -18.97483 | -65.23410 | 31996 ft | 435 kts | 237° |
| 2026-04-30 22:12 | -19.00892 | -65.28699 | 31996 ft | 435 kts | 237° |
| 2026-04-30 22:12 | -19.04268 | -65.33998 | 31996 ft | 435 kts | 238° |
| 2026-04-30 22:13 | -19.07635 | -65.39312 | 31996 ft | 435 kts | 238° |
| 2026-04-30 22:13 | -19.10997 | -65.44633 | 31996 ft | 435 kts | 238° |
| 2026-04-30 22:14 | -19.14350 | -65.49949 | 31996 ft | 435 kts | 238° |
| 2026-04-30 22:14 | -19.17709 | -65.55279 | 31996 ft | 435 kts | 238° |
| 2026-04-30 22:15 | -19.21063 | -65.60607 | 31996 ft | 435 kts | 238° |
| 2026-04-30 22:15 | -19.23241 | -65.64069 | 31996 ft | 435 kts | 238° |
| 2026-04-30 22:16 | -19.26443 | -65.69163 | 31996 ft | 435 kts | 238° |
| 2026-04-30 22:17 | -19.33137 | -65.79826 | 31996 ft | 435 kts | 238° |
| 2026-04-30 22:17 | -19.38164 | -65.87835 | 31996 ft | 435 kts | 238° |
| 2026-04-30 22:18 | -19.43208 | -65.95828 | 31996 ft | 435 kts | 238° |
| 2026-04-30 22:19 | -19.48250 | -66.03817 | 31996 ft | 435 kts | 238° |
| 2026-04-30 22:20 | -19.53297 | -66.11820 | 31996 ft | 435 kts | 238° |
| 2026-04-30 22:20 | -19.58354 | -66.19803 | 31996 ft | 435 kts | 238° |
| 2026-04-30 22:21 | -19.61730 | -66.25133 | 31996 ft | 435 kts | 238° |
| 2026-04-30 22:21 | -19.65104 | -66.30464 | 31996 ft | 435 kts | 238° |
| 2026-04-30 22:22 | -19.68480 | -66.35802 | 31989 ft | 436 kts | 238° |
| 2026-04-30 22:22 | -19.71865 | -66.41162 | 31959 ft | 440 kts | 238° |
| 2026-04-30 22:23 | -19.75280 | -66.46578 | 31934 ft | 444 kts | 238° |
| 2026-04-30 22:23 | -19.78729 | -66.52052 | 31919 ft | 448 kts | 238° |
| 2026-04-30 22:24 | -19.82198 | -66.57563 | 31914 ft | 450 kts | 238° |
| 2026-04-30 22:24 | -19.85675 | -66.63089 | 31913 ft | 450 kts | 238° |
| 2026-04-30 22:25 | -19.89157 | -66.68628 | 31914 ft | 452 kts | 238° |
| 2026-04-30 22:25 | -19.92642 | -66.74180 | 31916 ft | 452 kts | 238° |
| 2026-04-30 22:26 | -19.97859 | -66.82507 | 31926 ft | 450 kts | 237° |
| 2026-04-30 22:27 | -20.01339 | -66.88016 | 31930 ft | 448 kts | 237° |
| 2026-04-30 22:27 | -20.06559 | -66.96208 | 31933 ft | 447 kts | 238° |
| 2026-04-30 22:28 | -20.11790 | -67.04413 | 31934 ft | 446 kts | 237° |
| 2026-04-30 22:29 | -20.18739 | -67.15328 | 31934 ft | 445 kts | 237° |
| 2026-04-30 22:31 | -20.30864 | -67.34434 | 31934 ft | 445 kts | 237° |
| 2026-04-30 22:32 | -20.39521 | -67.48115 | 31923 ft | 448 kts | 238° |
| 2026-04-30 22:33 | -20.48234 | -67.61922 | 31913 ft | 450 kts | 237° |
| 2026-04-30 22:35 | -20.56972 | -67.75799 | 31913 ft | 453 kts | 238° |
| 2026-04-30 22:36 | -20.65764 | -67.89798 | 31913 ft | 454 kts | 238° |
| 2026-04-30 22:37 | -20.72765 | -68.00970 | 31913 ft | 452 kts | 238° |
| 2026-04-30 22:38 | -20.79151 | -68.11180 | 31913 ft | 451 kts | 238° |
| 2026-04-30 22:39 | -20.84394 | -68.19575 | 31913 ft | 453 kts | 238° |
| 2026-04-30 22:40 | -20.94878 | -68.36411 | 31913 ft | 454 kts | 238° |
| 2026-04-30 22:41 | -21.02010 | -68.47797 | 31913 ft | 456 kts | 238° |
| 2026-04-30 22:43 | -21.12582 | -68.64677 | 31913 ft | 453 kts | 238° |
| 2026-04-30 22:44 | -21.18104 | -68.76546 | 31916 ft | 447 kts | 262° |
| 2026-04-30 22:45 | -21.18679 | -68.89939 | 31210 ft | 456 kts | 272° |
| 2026-04-30 22:45 | -21.18564 | -68.96738 | 30462 ft | 455 kts | 272° |
| 2026-04-30 22:46 | -21.18433 | -69.03483 | 29713 ft | 451 kts | 271° |
| 2026-04-30 22:47 | -21.18251 | -69.16744 | 28212 ft | 439 kts | 271° |
| 2026-04-30 22:47 | -21.18197 | -69.23236 | 27461 ft | 432 kts | 271° |
| 2026-04-30 22:48 | -21.18160 | -69.29601 | 26710 ft | 423 kts | 271° |
| 2026-04-30 22:49 | -21.18119 | -69.38882 | 25467 ft | 404 kts | 270° |
| 2026-04-30 22:49 | -21.18087 | -69.47702 | 23972 ft | 388 kts | 270° |
| 2026-04-30 22:50 | -21.18047 | -69.59045 | 21729 ft | 373 kts | 270° |
| 2026-04-30 22:51 | -21.18025 | -69.64554 | 20478 ft | 366 kts | 271° |
| 2026-04-30 22:51 | -21.18004 | -69.69871 | 19913 ft | 341 kts | 271° |
| 2026-04-30 22:52 | -21.17994 | -69.72335 | 19905 ft | 322 kts | 271° |
| 2026-04-30 22:52 | -21.17215 | -69.76752 | 19909 ft | 286 kts | 290° |
| 2026-04-30 22:53 | -21.15653 | -69.80461 | 19620 ft | 269 kts | 297° |
| 2026-04-30 22:53 | -21.13794 | -69.84023 | 18635 ft | 278 kts | 300° |
| 2026-04-30 22:53 | -21.12790 | -69.85804 | 18136 ft | 281 kts | 300° |
| 2026-04-30 22:54 | -21.10701 | -69.89374 | 17138 ft | 285 kts | 301° |
| 2026-04-30 22:55 | -21.07460 | -69.94761 | 15640 ft | 289 kts | 301° |
| 2026-04-30 22:55 | -21.05519 | -69.97952 | 14758 ft | 291 kts | 300° |
| 2026-04-30 22:56 | -21.03473 | -70.01309 | 13835 ft | 292 kts | 301° |
| 2026-04-30 22:56 | -21.00142 | -70.06763 | 12335 ft | 291 kts | 303° |
| 2026-04-30 22:57 | -20.97925 | -70.10385 | 11336 ft | 291 kts | 303° |
| 2026-04-30 22:57 | -20.95789 | -70.14045 | 10336 ft | 290 kts | 300° |
| 2026-04-30 22:58 | -20.93813 | -70.17680 | 10013 ft | 273 kts | 298° |
| 2026-04-30 22:59 | -20.91248 | -70.22553 | 9604 ft | 238 kts | 297° |
| 2026-04-30 22:59 | -20.88914 | -70.27046 | 8849 ft | 224 kts | 297° |